Airfield :
LOGIN :

Register | Disclaimer

   EN    FR    IT 

 










Legend :    VFR   Marginal VFR   IFR   Intensive IFR   Very Intensive IFR
Visi :
Ceiling :
>= 8 km
>= 3000ft
5 to 8 km
1000 to 3000 ft
1500m to 5 km
500 to 1000 ft
800 to 1500m
200 to 500 ft
< 800m
< 200 ft
Symbols :   Thunderstorms  Fog  Heavy snow  Heavy precipitations  Wind > 20 kt
SIGMETs :     Misc.  Thunderstorms  Icing  Turbulence  Mountain Waves  Volcanic Ashes







- Airport Elevation : 56 ft
- IATA code : ILY
- Download approach charts


EGPI - Islay

CURRENT METAR :
  • 261520Z AUTO VRB02KT 9999 BKN020/// 09/07 Q0997 RERA

EXPIRED METARs :
  • 261450Z 25008KT 9999 SCT030 SCT037 09/08 Q0997
  • 261420Z 24010KT 9999 FEW018 BKN032 BKN045 09/08 Q0998
  • 261350Z 26011KT 9999 -RA SCT005 SCT010 BKN016 09/09 Q0998
  • 261320Z 15011KT 100V180 4500 -RADZ BKN004 BKN012 09/09 Q0997

TAF AMD TAF EGPI
Valid from the 26 at 15:00 until the 26 at 18:00 UTC


261537Z 2615/2618 VRB04KT 9999 FEW015 SCT030
BECMG 2615/2618 15012KT
TEMPO 2615/2618 7000 RA SHRA BKN012
No reported NOTAMs for that airfield.



MET'MAP, your aeronautical weather chart ! - Copyright ORBIFLY December 2007 - Disclaimer

ORBIFLY MET'MAP TEAM :

Programming & Development : Alexandra Zaïnal
Concept & Development : Baudouin d'Aumeries
Co-Development & Prog : Marc-Olivier Méhu
Technical & hardware support : Manuel Goepfert

Contact : metmap@orbifly.com




SOURCES & CREDITS :

   NOAA